createdAt,value
2017-12-26T00:02:14.844Z,21.05
2017-12-26T00:04:41.722Z,19.75
2017-12-26T00:07:08.655Z,20.30
2017-12-26T00:09:35.604Z,19.20
2017-12-26T00:12:02.487Z,20.73
2017-12-26T00:14:30.174Z,19.45
2017-12-26T00:16:57.091Z,21.02
2017-12-26T00:19:23.965Z,19.98
2017-12-26T00:21:50.900Z,21.40
2017-12-26T00:24:17.759Z,18.48
2017-12-26T00:26:44.615Z,20.00
2017-12-26T00:29:11.548Z,18.98
2017-12-26T00:31:38.412Z,18.52
2017-12-26T00:34:05.370Z,18.85
2017-12-26T00:36:32.215Z,18.45
2017-12-26T00:38:59.101Z,19.62
2017-12-26T00:41:26.765Z,17.65
2017-12-26T00:43:54.447Z,18.83
2017-12-26T00:46:21.360Z,19.50
2017-12-26T00:48:48.307Z,19.92
2017-12-26T00:51:15.152Z,17.50
2017-12-26T00:53:42.105Z,18.58
2017-12-26T00:56:09.747Z,19.12
2017-12-26T00:58:36.620Z,18.42
2017-12-26T01:01:04.307Z,19.62
2017-12-26T01:03:31.155Z,19.17
2017-12-26T01:05:58.093Z,22.17
2017-12-26T01:08:24.945Z,19.50
2017-12-26T01:10:51.872Z,21.15
2017-12-26T01:13:19.479Z,18.98
2017-12-26T01:15:46.427Z,19.58
2017-12-26T01:18:13.304Z,19.48
2017-12-26T01:20:40.904Z,18.83
2017-12-26T01:23:07.887Z,19.67
2017-12-26T01:25:34.828Z,19.77
2017-12-26T01:28:01.685Z,23.87
2017-12-26T01:30:28.622Z,18.87
2017-12-26T01:32:55.507Z,19.48
2017-12-26T01:35:23.136Z,18.58
2017-12-26T01:37:50.043Z,18.92
2017-12-26T01:40:16.957Z,19.30
2017-12-26T01:42:44.692Z,18.87
2017-12-26T01:45:11.628Z,19.87
2017-12-26T01:47:38.498Z,20.88
2017-12-26T01:50:05.435Z,21.15
2017-12-26T01:52:32.314Z,22.95
2017-12-26T01:54:59.973Z,21.30
2017-12-26T01:57:27.669Z,21.25
2017-12-26T01:59:54.533Z,21.27
2017-12-26T02:02:21.430Z,21.27
2017-12-26T02:04:49.075Z,20.10
2017-12-26T02:07:15.935Z,19.37
2017-12-26T02:09:43.586Z,19.62
2017-12-26T02:12:11.183Z,20.85
2017-12-26T02:14:38.104Z,20.75
2017-12-26T02:17:05.759Z,22.50
2017-12-26T02:19:33.411Z,20.42
2017-12-26T02:22:00.430Z,20.17
2017-12-26T02:24:27.288Z,19.80
2017-12-26T02:26:54.152Z,20.12
2017-12-26T02:29:21.071Z,19.67
2017-12-26T02:31:47.939Z,18.23
2017-12-26T02:34:14.864Z,19.37
2017-12-26T02:36:41.732Z,19.45
2017-12-26T02:39:08.728Z,20.80
2017-12-26T02:41:35.597Z,19.60
2017-12-26T02:44:02.515Z,20.23
2017-12-26T02:46:29.388Z,19.73
2017-12-26T02:48:56.328Z,18.60
2017-12-26T02:51:23.188Z,19.70
2017-12-26T02:53:50.049Z,19.95
2017-12-26T02:56:16.987Z,21.12
2017-12-26T02:58:43.903Z,19.92
2017-12-26T03:01:10.776Z,20.20
2017-12-26T03:03:37.707Z,20.20
2017-12-26T03:06:04.569Z,20.27
2017-12-26T03:08:31.495Z,20.35
2017-12-26T03:10:58.431Z,18.35
2017-12-26T03:13:25.401Z,18.90
2017-12-26T03:15:52.260Z,17.90
2017-12-26T03:18:19.207Z,18.73
2017-12-26T03:20:46.052Z,20.17
2017-12-26T03:23:12.903Z,18.20
2017-12-26T03:25:39.835Z,20.25
2017-12-26T03:28:06.755Z,17.50
2017-12-26T03:30:34.449Z,17.50
2017-12-26T03:33:01.333Z,19.35
2017-12-26T03:35:28.269Z,18.85
2017-12-26T03:37:55.123Z,19.27
2017-12-26T03:40:22.051Z,20.17
2017-12-26T03:42:49.024Z,22.20
2017-12-26T03:45:15.900Z,19.58
2017-12-26T03:47:42.861Z,18.17
2017-12-26T03:50:09.732Z,20.37
2017-12-26T03:52:37.339Z,17.95
2017-12-26T03:55:04.314Z,18.40
2017-12-26T03:57:31.322Z,20.08
2017-12-26T03:59:58.236Z,19.20
2017-12-26T04:02:25.835Z,17.80
2017-12-26T04:04:52.791Z,17.30
2017-12-26T04:07:19.661Z,18.00
2017-12-26T04:09:46.540Z,15.05
2017-12-26T04:12:13.471Z,17.02
2017-12-26T04:14:41.151Z,18.55
2017-12-26T04:17:08.011Z,18.77
2017-12-26T04:19:34.935Z,18.87
2017-12-26T04:22:01.796Z,17.50
2017-12-26T04:24:28.723Z,17.65
2017-12-26T04:26:56.387Z,18.45
2017-12-26T04:29:23.248Z,16.92
2017-12-26T04:31:50.159Z,18.87
2017-12-26T04:34:17.775Z,17.20
2017-12-26T04:36:44.715Z,17.65
2017-12-26T04:39:11.566Z,18.27
2017-12-26T04:41:38.477Z,15.93
2017-12-26T04:44:05.388Z,19.83
2017-12-26T04:46:32.308Z,17.92
2017-12-26T04:48:59.236Z,17.92
2017-12-26T04:51:26.086Z,17.75
2017-12-26T04:53:53.007Z,19.75
2017-12-26T04:56:19.864Z,15.75
2017-12-26T04:58:46.859Z,18.35
2017-12-26T05:01:13.773Z,17.10
2017-12-26T05:03:40.651Z,16.42
2017-12-26T05:06:07.580Z,15.60
2017-12-26T05:08:34.444Z,17.73
2017-12-26T05:11:01.381Z,16.95
2017-12-26T05:13:28.234Z,17.52
2017-12-26T05:15:55.092Z,20.20
2017-12-26T05:18:22.766Z,17.90
2017-12-26T05:20:50.409Z,17.90
2017-12-26T05:23:17.354Z,17.95
2017-12-26T05:25:44.312Z,18.60
2017-12-26T05:28:11.963Z,18.55
2017-12-26T05:30:38.820Z,19.75
2017-12-26T05:33:06.495Z,18.00
2017-12-26T05:35:34.167Z,19.50
2017-12-26T05:38:01.080Z,22.40
2017-12-26T05:40:27.940Z,19.70
2017-12-26T05:42:55.536Z,19.85
2017-12-26T05:45:22.455Z,20.55
2017-12-26T05:47:50.127Z,20.60
2017-12-26T05:50:17.046Z,18.10
2017-12-26T05:52:44.657Z,19.48
2017-12-26T05:55:11.580Z,18.92
2017-12-26T05:57:38.431Z,20.08
2017-12-26T06:00:05.375Z,24.00
2017-12-26T06:02:32.381Z,19.40
2017-12-26T06:04:59.259Z,19.33
2017-12-26T06:07:26.846Z,20.58
2017-12-26T06:09:53.771Z,19.65
2017-12-26T06:12:20.704Z,18.87
2017-12-26T06:14:48.314Z,21.37
2017-12-26T06:17:15.245Z,17.73
2017-12-26T06:19:42.118Z,18.70
2017-12-26T06:22:09.004Z,19.60
2017-12-26T06:24:36.691Z,24.23
2017-12-26T06:27:03.570Z,23.52
2017-12-26T06:29:30.476Z,20.30
2017-12-26T06:31:57.351Z,17.67
2017-12-26T06:34:24.269Z,19.70
2017-12-26T06:36:51.132Z,20.50
2017-12-26T06:39:18.043Z,16.98
2017-12-26T06:41:45.662Z,12.88
2017-12-26T06:44:12.594Z,14.70
2017-12-26T06:46:39.465Z,13.40
2017-12-26T06:49:06.405Z,12.77
2017-12-26T06:51:33.304Z,10.88
2017-12-26T06:54:00.239Z,11.65
2017-12-26T06:56:27.115Z,9.20
2017-12-26T06:58:54.074Z,9.60
2017-12-26T07:01:21.048Z,9.30
2017-12-26T07:03:47.924Z,7.32
2017-12-26T07:06:14.856Z,7.47
2017-12-26T07:08:42.569Z,6.85
2017-12-26T07:11:09.438Z,6.47
2017-12-26T07:13:36.363Z,6.20
2017-12-26T07:16:03.256Z,6.53
2017-12-26T07:18:30.922Z,8.50
2017-12-26T07:21:03.787Z,6.60
2017-12-26T07:23:31.385Z,9.02
2017-12-26T07:25:58.319Z,8.45
2017-12-26T07:28:25.224Z,5.60
2017-12-26T07:30:52.122Z,5.90
2017-12-26T07:33:19.090Z,5.30
2017-12-26T07:35:45.948Z,5.40
2017-12-26T07:38:12.914Z,4.50
2017-12-26T07:40:39.795Z,5.53
2017-12-26T07:43:06.842Z,4.93
2017-12-26T07:45:33.783Z,4.72
2017-12-26T07:48:00.646Z,4.45
2017-12-26T07:50:28.841Z,4.63
2017-12-26T07:53:05.243Z,3.83
2017-12-26T07:55:34.277Z,4.90
2017-12-26T07:58:01.960Z,4.85
2017-12-26T08:00:28.895Z,4.53
2017-12-26T08:03:05.614Z,3.77
2017-12-26T08:05:34.584Z,5.00
2017-12-26T08:08:02.149Z,3.80
2017-12-26T08:10:29.324Z,4.23
2017-12-26T08:12:56.726Z,4.20
2017-12-26T08:15:23.767Z,4.40
2017-12-26T08:17:51.641Z,3.57
2017-12-26T08:20:18.551Z,3.27
2017-12-26T08:22:45.525Z,3.40
2017-12-26T08:25:12.608Z,4.00
2017-12-26T08:27:43.017Z,3.63
2017-12-26T08:30:10.439Z,3.60
2017-12-26T08:32:40.249Z,3.63
2017-12-26T08:35:07.191Z,3.37
2017-12-26T08:37:34.612Z,3.83
2017-12-26T08:40:01.493Z,3.27
2017-12-26T08:42:28.443Z,3.57
2017-12-26T08:44:55.328Z,3.60
2017-12-26T08:47:22.364Z,3.60
2017-12-26T08:49:49.336Z,3.60
2017-12-26T08:52:16.228Z,4.03
2017-12-26T08:54:43.932Z,3.60
2017-12-26T08:57:15.009Z,4.27
2017-12-26T08:59:44.548Z,3.87
2017-12-26T09:02:12.248Z,3.50
2017-12-26T09:04:39.552Z,3.47
2017-12-26T09:07:06.520Z,4.17
2017-12-26T09:09:34.727Z,11.40
2017-12-26T09:12:01.639Z,3.97
2017-12-26T09:14:31.756Z,3.83
2017-12-26T09:16:59.007Z,3.80
2017-12-26T09:19:28.206Z,3.77
2017-12-26T09:21:55.075Z,3.87
2017-12-26T09:24:22.096Z,4.33
2017-12-26T09:26:49.037Z,4.10
2017-12-26T09:29:16.042Z,3.67
2017-12-26T09:31:43.090Z,5.20
2017-12-26T09:34:10.138Z,5.10
2017-12-26T09:36:39.952Z,4.40
2017-12-26T09:39:07.919Z,3.63
2017-12-26T09:41:39.042Z,4.57
2017-12-26T09:44:06.300Z,4.47
2017-12-26T09:46:33.446Z,4.50
2017-12-26T09:49:07.302Z,3.60
2017-12-26T09:51:34.757Z,6.30
2017-12-26T09:54:01.713Z,4.23
2017-12-26T09:56:41.959Z,4.00
2017-12-26T09:59:22.675Z,3.80
2017-12-26T10:01:53.707Z,3.57
2017-12-26T10:04:21.384Z,3.33
2017-12-26T10:06:48.322Z,3.13
2017-12-26T10:09:15.950Z,2.83
2017-12-26T10:11:42.887Z,2.90
2017-12-26T10:14:09.748Z,3.30
2017-12-26T10:16:39.090Z,3.10
2017-12-26T10:19:06.040Z,3.90
2017-12-26T10:21:32.922Z,3.17
2017-12-26T10:23:59.958Z,2.80
2017-12-26T10:26:27.384Z,3.13
2017-12-26T10:28:54.266Z,2.80
2017-12-26T10:31:21.220Z,4.70
2017-12-26T10:33:48.095Z,3.03
2017-12-26T10:36:15.061Z,3.00
2017-12-26T10:38:41.955Z,3.00
2017-12-26T10:41:09.338Z,3.43
2017-12-26T10:43:39.009Z,5.27
2017-12-26T10:46:06.368Z,3.50
2017-12-26T10:48:33.253Z,3.77
2017-12-26T10:51:00.210Z,3.77
2017-12-26T10:53:27.075Z,4.90
2017-12-26T10:55:54.046Z,4.70
2017-12-26T10:58:20.924Z,3.67
2017-12-26T11:00:49.024Z,4.07
2017-12-26T11:03:16.729Z,4.03
2017-12-26T11:05:43.804Z,3.93
2017-12-26T11:08:10.706Z,3.53
2017-12-26T11:10:37.588Z,4.03
2017-12-26T11:13:04.497Z,3.50
2017-12-26T11:15:31.375Z,4.33
2017-12-26T11:17:58.364Z,3.80
2017-12-26T11:20:25.967Z,4.60
2017-12-26T11:22:52.896Z,5.97
2017-12-26T11:25:19.822Z,5.47
2017-12-26T11:27:47.512Z,4.70
2017-12-26T11:30:14.473Z,4.27
2017-12-26T11:32:41.329Z,3.90
2017-12-26T11:35:08.312Z,4.13
2017-12-26T11:37:35.244Z,4.30
2017-12-26T11:40:02.174Z,4.47
2017-12-26T11:42:29.111Z,3.90
2017-12-26T11:44:56.069Z,3.50
2017-12-26T11:47:22.974Z,3.33
2017-12-26T11:49:49.895Z,2.87
2017-12-26T11:52:17.481Z,2.87
2017-12-26T11:54:44.407Z,2.40
2017-12-26T11:57:11.357Z,1.83
2017-12-26T11:59:39.048Z,2.63
2017-12-26T12:02:05.920Z,1.53
2017-12-26T12:04:32.829Z,1.10
2017-12-26T12:06:59.802Z,1.57
2017-12-26T12:09:26.672Z,1.07
2017-12-26T12:11:53.608Z,0.90
2017-12-26T12:14:20.460Z,1.03
2017-12-26T12:16:47.368Z,1.23
2017-12-26T12:19:14.247Z,0.93
2017-12-26T12:21:41.253Z,1.10
2017-12-26T12:24:08.239Z,1.00
2017-12-26T12:26:35.182Z,0.77
2017-12-26T12:29:02.109Z,1.13
2017-12-26T12:31:29.059Z,0.90
2017-12-26T12:33:55.913Z,1.30
2017-12-26T12:36:22.837Z,1.30
2017-12-26T12:38:49.729Z,1.30
2017-12-26T12:41:16.736Z,2.47
2017-12-26T12:43:43.597Z,1.50
2017-12-26T12:46:10.495Z,0.90
2017-12-26T12:48:38.231Z,0.60
2017-12-26T12:51:05.081Z,0.80
2017-12-26T12:53:31.962Z,0.93
2017-12-26T12:55:58.890Z,0.80
2017-12-26T12:58:26.580Z,0.83
2017-12-26T13:00:53.480Z,0.70
2017-12-26T13:03:20.340Z,2.07
2017-12-26T13:05:47.271Z,1.17
2017-12-26T13:08:14.288Z,1.30
2017-12-26T13:10:41.183Z,1.23
2017-12-26T13:13:08.160Z,1.10
2017-12-26T13:15:35.029Z,1.77
2017-12-26T13:18:01.947Z,1.53
2017-12-26T13:20:28.912Z,1.97
2017-12-26T13:22:55.793Z,1.10
2017-12-26T13:25:22.744Z,1.00
2017-12-26T13:27:49.620Z,0.80
2017-12-26T13:30:16.480Z,1.90
2017-12-26T13:32:43.564Z,3.10
2017-12-26T13:35:10.469Z,3.00
2017-12-26T13:37:37.436Z,1.37
2017-12-26T13:40:04.392Z,2.17
2017-12-26T13:42:31.332Z,2.10
2017-12-26T13:44:58.201Z,1.30
2017-12-26T13:47:25.098Z,1.67
2017-12-26T13:49:52.042Z,1.50
2017-12-26T13:52:18.936Z,1.93
2017-12-26T13:54:45.810Z,1.70
2017-12-26T13:57:12.780Z,1.30
2017-12-26T13:59:39.664Z,1.00
2017-12-26T14:02:06.612Z,3.53
2017-12-26T14:04:33.567Z,2.53
2017-12-26T14:07:00.440Z,2.40
2017-12-26T14:09:28.115Z,2.40
2017-12-26T14:11:54.988Z,0.90
2017-12-26T14:14:21.888Z,1.30
2017-12-26T14:16:48.816Z,1.77
2017-12-26T14:19:15.755Z,1.67
2017-12-26T14:21:42.628Z,2.17
2017-12-26T14:24:09.527Z,1.23
2017-12-26T14:26:36.447Z,0.93
2017-12-26T14:29:03.321Z,1.07
2017-12-26T14:31:30.272Z,1.70
2017-12-26T14:33:57.207Z,1.80
2017-12-26T14:36:24.103Z,1.17
2017-12-26T14:38:50.963Z,1.40
2017-12-26T14:41:17.948Z,1.47
2017-12-26T14:43:44.843Z,1.30
2017-12-26T14:46:11.857Z,1.43
2017-12-26T14:48:38.785Z,1.50
2017-12-26T14:51:05.666Z,1.10
2017-12-26T14:53:33.347Z,1.43
2017-12-26T14:56:00.283Z,1.45
2017-12-26T14:58:27.876Z,1.60
2017-12-26T15:00:54.905Z,1.30
2017-12-26T15:03:21.851Z,2.07
2017-12-26T15:05:48.740Z,1.25
2017-12-26T15:08:15.619Z,2.42
2017-12-26T15:10:43.344Z,2.53
2017-12-26T15:13:10.203Z,1.33
2017-12-26T15:15:37.081Z,2.25
2017-12-26T15:18:04.091Z,2.65
2017-12-26T15:20:31.007Z,2.00
2017-12-26T15:22:58.016Z,1.33
2017-12-26T15:25:25.741Z,1.50
2017-12-26T15:27:52.744Z,1.40
2017-12-26T15:30:19.682Z,1.50
2017-12-26T15:32:46.685Z,1.40
2017-12-26T15:35:13.619Z,1.20
2017-12-26T15:37:40.477Z,1.80
2017-12-26T15:40:07.424Z,4.45
2017-12-26T15:42:34.351Z,4.30
2017-12-26T15:45:01.208Z,4.82
2017-12-26T15:47:28.151Z,1.33
2017-12-26T15:49:55.029Z,1.60
2017-12-26T15:52:22.702Z,4.27
2017-12-26T15:54:50.375Z,2.10
2017-12-26T15:57:17.251Z,1.90
2017-12-26T15:59:44.172Z,2.27
2017-12-26T16:02:11.053Z,1.52
2017-12-26T16:04:38.054Z,1.48
2017-12-26T16:07:05.715Z,3.00
2017-12-26T16:09:33.488Z,2.63
2017-12-26T16:12:00.370Z,1.45
2017-12-26T16:14:27.236Z,1.70
2017-12-26T16:16:54.188Z,2.75
2017-12-26T16:19:21.098Z,2.77
2017-12-26T16:21:47.960Z,1.17
2017-12-26T16:24:14.891Z,1.50
2017-12-26T16:26:41.750Z,2.13
2017-12-26T16:29:08.684Z,3.20
2017-12-26T16:31:35.551Z,3.15
2017-12-26T16:34:02.501Z,2.17
2017-12-26T16:36:29.379Z,1.65
2017-12-26T16:38:56.261Z,2.47
2017-12-26T16:41:23.235Z,2.53
2017-12-26T16:43:50.113Z,1.48
2017-12-26T16:46:17.787Z,2.57
2017-12-26T16:48:44.821Z,3.53
2017-12-26T16:51:12.494Z,4.10
2017-12-26T16:53:40.089Z,2.55
2017-12-26T16:56:07.046Z,2.17
2017-12-26T16:58:33.991Z,1.90
2017-12-26T17:01:00.869Z,1.40
2017-12-26T17:03:27.908Z,1.77
2017-12-26T17:05:54.791Z,1.17
2017-12-26T17:08:21.671Z,3.15
2017-12-26T17:10:48.604Z,1.15
2017-12-26T17:13:15.604Z,1.70
2017-12-26T17:15:42.496Z,1.40
2017-12-26T17:18:10.337Z,1.15
2017-12-26T17:20:37.197Z,1.55
2017-12-26T17:23:04.163Z,1.48
2017-12-26T17:25:31.063Z,3.07
2017-12-26T17:28:07.009Z,2.13
2017-12-26T17:30:41.974Z,1.65
2017-12-26T17:33:17.430Z,1.90
2017-12-26T17:35:52.082Z,2.37
2017-12-26T17:38:27.227Z,1.50
2017-12-26T17:41:02.439Z,2.17
2017-12-26T17:43:38.082Z,1.30
2017-12-26T17:46:13.180Z,2.60
2017-12-26T17:48:49.947Z,2.45
2017-12-26T17:51:25.314Z,1.50
2017-12-26T17:56:50.136Z,2.15
2017-12-26T17:59:19.847Z,2.10
2017-12-26T18:01:46.815Z,2.40
2017-12-26T18:04:13.664Z,2.55
2017-12-26T18:06:40.586Z,1.30
2017-12-26T18:09:07.593Z,1.70
2017-12-26T18:11:34.558Z,1.85
2017-12-26T18:14:01.483Z,1.70
2017-12-26T18:16:28.455Z,1.20
2017-12-26T18:18:55.425Z,1.60
2017-12-26T18:21:23.044Z,1.60
2017-12-26T18:23:53.407Z,1.70
2017-12-26T18:26:20.487Z,1.45
2017-12-26T18:31:17.458Z,2.08
2017-12-26T18:33:44.440Z,1.55
2017-12-26T18:36:11.399Z,1.83
2017-12-26T18:38:39.166Z,1.95
2017-12-26T18:41:06.140Z,1.53
2017-12-26T18:43:34.090Z,1.57
2017-12-26T18:46:01.586Z,1.60
2017-12-26T18:48:28.587Z,1.50
2017-12-26T18:50:55.648Z,2.03
2017-12-26T18:53:23.626Z,2.00
2017-12-26T18:55:50.590Z,1.95
2017-12-26T18:58:17.561Z,1.90
2017-12-26T19:00:44.693Z,1.00
2017-12-26T19:03:11.631Z,1.60
2017-12-26T19:05:38.776Z,1.42
2017-12-26T19:08:05.772Z,1.27
2017-12-26T19:10:32.727Z,1.50
2017-12-26T19:12:59.684Z,1.37
2017-12-26T19:15:26.567Z,1.53
2017-12-26T19:17:53.500Z,1.30
2017-12-26T19:20:21.218Z,1.90
2017-12-26T19:22:48.100Z,1.50
2017-12-26T19:25:15.742Z,1.15
2017-12-26T19:27:42.674Z,1.77
2017-12-26T19:30:09.552Z,1.45
2017-12-26T19:32:37.215Z,1.40
2017-12-26T19:35:04.847Z,1.40
2017-12-26T19:37:31.803Z,1.73
2017-12-26T19:39:58.670Z,1.12
2017-12-26T19:42:25.539Z,1.23
2017-12-26T19:44:52.485Z,1.60
2017-12-26T19:47:19.407Z,1.58
2017-12-26T19:49:47.120Z,1.87
2017-12-26T19:52:14.011Z,1.10
2017-12-26T19:54:41.736Z,1.40
2017-12-26T19:57:09.709Z,1.30
2017-12-26T19:59:39.149Z,1.50
2017-12-26T20:02:06.946Z,1.70
2017-12-26T20:18:46.839Z,1.27
2017-12-26T20:21:30.537Z,1.67
2017-12-26T20:24:15.007Z,1.13
2017-12-26T20:26:57.494Z,1.30
2017-12-26T20:29:41.657Z,1.00
2017-12-26T20:35:13.249Z,0.90
2017-12-26T20:37:57.100Z,1.17
2017-12-26T20:40:41.373Z,0.98
2017-12-26T20:43:22.164Z,1.05
2017-12-26T20:45:50.432Z,1.27
2017-12-26T20:48:34.384Z,1.53
2017-12-26T20:51:04.000Z,1.05
2017-12-26T20:53:32.359Z,1.20
2017-12-26T20:56:00.028Z,1.20
2017-12-26T20:58:32.414Z,1.40
2017-12-26T21:01:10.792Z,1.98
2017-12-26T21:03:39.011Z,1.17
2017-12-26T21:06:07.044Z,1.80
2017-12-26T21:08:35.216Z,1.00
2017-12-26T21:11:11.372Z,1.02
2017-12-26T21:13:38.639Z,1.20
2017-12-26T21:16:07.410Z,1.30
2017-12-26T21:18:34.599Z,1.50
2017-12-26T21:21:01.472Z,1.20
2017-12-26T21:23:28.420Z,1.33
2017-12-26T21:25:55.354Z,1.50
2017-12-26T21:28:23.096Z,1.67
2017-12-26T21:30:50.030Z,1.57
2017-12-26T21:33:16.900Z,1.70
2017-12-26T21:35:43.817Z,2.83
2017-12-26T21:38:10.764Z,1.40
2017-12-26T21:40:37.750Z,1.60
2017-12-26T21:43:05.363Z,1.67
2017-12-26T21:45:32.403Z,1.60
2017-12-26T21:48:11.117Z,1.30
2017-12-26T21:50:48.556Z,1.37
2017-12-26T21:53:28.147Z,1.40
2017-12-26T21:56:05.805Z,1.40
2017-12-26T21:58:43.596Z,2.08
2017-12-26T22:01:23.338Z,3.05
2017-12-26T22:04:03.576Z,4.60
2017-12-26T22:06:42.166Z,2.83
2017-12-26T22:09:18.986Z,1.70
2017-12-26T22:11:57.255Z,1.58
2017-12-26T22:14:34.988Z,1.60
2017-12-26T22:17:12.554Z,1.70
2017-12-26T22:19:41.339Z,1.45
2017-12-26T22:22:09.387Z,1.30
2017-12-26T22:24:37.258Z,1.40
2017-12-26T22:27:05.162Z,1.92
2017-12-26T22:29:32.733Z,2.10
2017-12-26T22:31:59.735Z,1.70
2017-12-26T22:34:28.595Z,1.62
2017-12-26T22:36:58.113Z,1.62
2017-12-26T22:39:25.277Z,1.45
2017-12-26T22:41:53.977Z,2.00
2017-12-26T22:44:20.897Z,1.75
2017-12-26T22:46:48.653Z,2.50
2017-12-26T22:49:15.700Z,1.60
2017-12-26T22:51:43.141Z,2.00
2017-12-26T22:54:11.341Z,1.55
2017-12-26T22:56:38.951Z,1.45
2017-12-26T22:59:06.775Z,1.80
2017-12-26T23:01:33.860Z,2.05
2017-12-26T23:04:01.600Z,2.55
2017-12-26T23:06:30.215Z,2.35
2017-12-26T23:08:57.325Z,2.15
2017-12-26T23:11:25.104Z,2.15
2017-12-26T23:13:58.151Z,2.10
2017-12-26T23:16:31.103Z,2.65
2017-12-26T23:18:58.064Z,1.80
2017-12-26T23:21:25.004Z,2.00
2017-12-26T23:23:57.756Z,2.05
2017-12-26T23:26:31.843Z,2.72
2017-12-26T23:29:04.615Z,2.40
2017-12-26T23:31:37.578Z,2.50
2017-12-26T23:34:10.323Z,1.87
2017-12-26T23:36:43.162Z,1.77
2017-12-26T23:39:16.069Z,2.03
2017-12-26T23:41:49.155Z,1.90
2017-12-26T23:44:21.999Z,2.37
2017-12-26T23:46:54.442Z,2.28
2017-12-26T23:49:27.979Z,1.90
2017-12-26T23:52:00.899Z,2.10
2017-12-26T23:54:33.701Z,2.20
2017-12-26T23:57:18.423Z,1.87
